Time;durP1;ratioP1;P1;durP2;ratioP2;P2;SDS_P1;SDS_P2;PMS_P1;PMS_P2;Temp;Humidity;BMP_temperature;BMP_pressure;BME280_temperature;BME280_humidity;BME280_pressure;Samples;Min_cycle;Max_cycle;Signal;HPM_P1;HPM_P2
2023/12/25 00:01:18;;;;;;;164.80;113.45;;;6.70;99.90;;;;;;4918768;29;20039;-78
2023/12/25 00:03:44;;;;;;;173.20;109.50;;;6.80;99.90;;;;;;4935708;29;20086;-78
2023/12/25 00:06:10;;;;;;;159.70;108.07;;;6.80;99.90;;;;;;4918307;29;20030;-76
2023/12/25 00:08:36;;;;;;;156.65;106.05;;;6.80;99.90;;;;;;4935483;29;20494;-78
2023/12/25 00:11:02;;;;;;;184.05;122.22;;;6.90;99.90;;;;;;4935238;29;20139;-75
2023/12/25 00:13:28;;;;;;;185.27;121.88;;;6.90;99.90;;;;;;4935416;29;20035;-78
2023/12/25 00:15:54;;;;;;;171.13;113.13;;;6.90;99.90;;;;;;4918250;29;20046;-79
2023/12/25 00:18:19;;;;;;;184.65;124.30;;;7.00;99.90;;;;;;4935339;29;20110;-78
2023/12/25 00:20:45;;;;;;;211.15;146.82;;;7.00;99.90;;;;;;4935224;29;20093;-76
2023/12/25 00:23:11;;;;;;;210.38;142.75;;;7.10;99.90;;;;;;4935232;29;20110;-75
2023/12/25 00:25:37;;;;;;;219.20;148.32;;;7.10;99.90;;;;;;4918060;29;20051;-77
2023/12/25 00:28:03;;;;;;;208.73;141.57;;;7.20;99.90;;;;;;4917987;29;20051;-77
2023/12/25 00:30:29;;;;;;;216.93;143.00;;;7.20;99.90;;;;;;4935596;29;20024;-73
2023/12/25 00:32:55;;;;;;;205.35;139.13;;;7.10;99.90;;;;;;4917899;29;20045;-77
2023/12/25 00:35:22;;;;;;;196.23;134.30;;;7.10;99.90;;;;;;4918088;29;20030;-74
2023/12/25 00:37:48;;;;;;;196.38;129.98;;;7.20;99.90;;;;;;4935008;29;20854;-75
2023/12/25 00:40:14;;;;;;;208.05;143.13;;;7.20;99.90;;;;;;4917974;29;20056;-74
2023/12/25 00:42:40;;;;;;;227.15;150.60;;;7.20;99.90;;;;;;4917841;29;20391;-77
2023/12/25 00:45:06;;;;;;;246.52;158.43;;;7.20;99.90;;;;;;4935123;29;20039;-78
2023/12/25 00:47:32;;;;;;;241.75;169.52;;;7.20;99.90;;;;;;4935092;29;20028;-77
2023/12/25 00:49:57;;;;;;;250.10;169.38;;;7.20;99.90;;;;;;4935315;29;20067;-76
2023/12/25 00:52:23;;;;;;;254.10;163.77;;;7.20;99.90;;;;;;4934443;29;20550;-77
2023/12/25 00:54:49;;;;;;;259.33;175.35;;;7.30;99.90;;;;;;4917169;29;20087;-77
2023/12/25 00:57:15;;;;;;;199.70;139.15;;;7.30;99.90;;;;;;4917783;29;20118;-74
2023/12/25 00:59:41;;;;;;;253.30;168.13;;;7.30;99.90;;;;;;4917407;29;20059;-77
2023/12/25 01:02:07;;;;;;;252.27;178.10;;;7.30;99.90;;;;;;4934617;29;20024;-77
2023/12/25 01:04:33;;;;;;;254.07;177.85;;;7.30;99.90;;;;;;4918050;29;20103;-75
2023/12/25 01:07:01;;;;;;;259.42;172.00;;;7.30;99.90;;;;;;4917971;29;20402;-77
2023/12/25 01:09:26;;;;;;;280.00;187.77;;;7.30;99.90;;;;;;4934506;29;20062;-77
2023/12/25 01:11:52;;;;;;;268.95;177.00;;;7.30;99.90;;;;;;4917532;29;20040;-77
2023/12/25 01:14:18;;;;;;;226.27;155.45;;;7.30;99.90;;;;;;4917566;29;20024;-76
2023/12/25 01:16:44;;;;;;;212.20;138.70;;;7.30;99.90;;;;;;4916971;29;20027;-75
2023/12/25 01:19:12;;;;;;;152.65;99.85;;;7.30;99.90;;;;;;4917187;29;20114;-75
2023/12/25 01:21:38;;;;;;;150.88;102.43;;;7.30;99.90;;;;;;4934335;29;20087;-78
2023/12/25 01:24:04;;;;;;;142.13;98.47;;;7.30;99.90;;;;;;4934498;29;20028;-76
2023/12/25 01:26:30;;;;;;;151.45;99.97;;;7.40;99.90;;;;;;4917348;29;20452;-75
2023/12/25 01:28:56;;;;;;;145.60;95.22;;;7.40;99.90;;;;;;4917627;29;20063;-77
2023/12/25 01:31:23;;;;;;;146.05;99.78;;;7.50;99.90;;;;;;4917292;29;20510;-76
2023/12/25 01:33:50;;;;;;;186.98;124.20;;;7.50;99.90;;;;;;4917219;29;20028;-78
2023/12/25 01:36:16;;;;;;;191.68;123.43;;;7.50;99.90;;;;;;4916951;29;20091;-78
2023/12/25 01:38:42;;;;;;;161.18;109.18;;;7.50;99.90;;;;;;4917016;29;20036;-76
2023/12/25 01:41:08;;;;;;;150.02;98.85;;;7.50;99.90;;;;;;4934252;29;20042;-77
2023/12/25 01:43:33;;;;;;;135.52;91.05;;;7.60;99.90;;;;;;4889901;29;20044;-77
2023/12/25 01:45:59;;;;;;;145.95;95.45;;;7.60;99.90;;;;;;4917070;29;20523;-77
2023/12/25 01:48:26;;;;;;;147.63;95.43;;;7.60;99.90;;;;;;4917105;29;20031;-78
2023/12/25 01:50:56;;;;;;;133.02;88.82;;;7.60;99.90;;;;;;4917417;29;20476;-78
2023/12/25 01:53:23;;;;;;;144.27;93.18;;;7.60;99.90;;;;;;4933735;29;20078;-77
2023/12/25 01:55:50;;;;;;;153.15;101.32;;;7.70;99.90;;;;;;4934503;29;20055;-76
2023/12/25 01:58:16;;;;;;;145.70;98.22;;;7.70;99.90;;;;;;4916928;29;20039;-77
2023/12/25 02:00:42;;;;;;;141.52;94.60;;;7.60;99.90;;;;;;4917252;29;20063;-75
2023/12/25 02:03:08;;;;;;;141.13;92.03;;;7.60;99.90;;;;;;4916972;29;20471;-75
2023/12/25 02:05:33;;;;;;;142.75;91.78;;;7.60;99.90;;;;;;4917766;29;20039;-77
2023/12/25 02:08:01;;;;;;;128.65;89.55;;;7.60;99.90;;;;;;4920266;29;20082;-77
2023/12/25 02:10:29;;;;;;;145.65;99.35;;;7.70;99.90;;;;;;4916862;29;20044;-77
2023/12/25 02:12:55;;;;;;;144.68;96.80;;;7.70;99.90;;;;;;4918728;29;20478;-76
2023/12/25 02:15:22;;;;;;;163.45;110.25;;;7.70;99.90;;;;;;4918305;29;20084;-76
2023/12/25 02:17:50;;;;;;;178.95;122.50;;;7.80;99.90;;;;;;4917452;29;20032;-77
2023/12/25 02:20:16;;;;;;;167.02;118.68;;;7.70;99.90;;;;;;4917255;29;20036;-78
2023/12/25 02:22:42;;;;;;;191.35;131.32;;;7.70;99.90;;;;;;4917277;29;20024;-75
2023/12/25 02:25:15;;;;;;;186.48;128.45;;;7.70;99.90;;;;;;4916482;29;20244;-77
2023/12/25 02:27:41;;;;;;;195.10;132.30;;;7.70;99.90;;;;;;4917267;29;20060;-77
2023/12/25 02:30:07;;;;;;;188.27;128.05;;;7.70;99.90;;;;;;4918405;29;20063;-78
2023/12/25 02:32:33;;;;;;;185.30;123.18;;;7.70;99.90;;;;;;4918204;29;20105;-76
2023/12/25 02:34:59;;;;;;;194.70;124.38;;;7.60;99.90;;;;;;4921908;29;20041;-77
2023/12/25 02:37:25;;;;;;;187.65;127.32;;;7.70;99.90;;;;;;4916091;29;20062;-75
2023/12/25 02:39:51;;;;;;;172.65;118.55;;;7.70;99.90;;;;;;4916986;29;20071;-76
2023/12/25 02:42:17;;;;;;;186.90;121.35;;;7.60;99.90;;;;;;4916556;29;20055;-78
2023/12/25 02:44:44;;;;;;;190.50;133.00;;;7.60;99.90;;;;;;4918097;29;20519;-76
2023/12/25 02:47:09;;;;;;;198.95;130.93;;;7.50;99.90;;;;;;4916629;29;20028;-77
2023/12/25 02:49:35;;;;;;;206.55;140.70;;;7.50;99.90;;;;;;4917027;29;20032;-78
2023/12/25 02:52:02;;;;;;;194.00;134.63;;;7.40;99.90;;;;;;4917616;29;20067;-78
2023/12/25 02:54:28;;;;;;;191.43;127.95;;;7.40;99.90;;;;;;4918192;29;20032;-77
2023/12/25 02:56:54;;;;;;;194.15;132.32;;;7.30;99.90;;;;;;4917152;29;20167;-79
2023/12/25 02:59:20;;;;;;;200.32;132.95;;;7.40;99.90;;;;;;4916439;29;20111;-78
2023/12/25 03:01:46;;;;;;;184.38;122.40;;;7.40;99.90;;;;;;4916207;29;20488;-77
2023/12/25 03:04:12;;;;;;;172.75;118.03;;;7.40;99.90;;;;;;4916444;29;20040;-77
2023/12/25 03:06:37;;;;;;;174.18;115.50;;;7.40;99.90;;;;;;4917590;29;20024;-75
2023/12/25 03:09:03;;;;;;;174.27;117.35;;;7.50;99.90;;;;;;4916023;29;20496;-76
2023/12/25 03:11:29;;;;;;;169.55;113.85;;;7.40;99.90;;;;;;4934535;29;20515;-77
2023/12/25 03:13:56;;;;;;;168.00;108.43;;;7.40;99.90;;;;;;4919530;29;20538;-78
2023/12/25 03:16:22;;;;;;;157.25;105.07;;;7.40;99.90;;;;;;4919368;29;20036;-77
2023/12/25 03:18:47;;;;;;;165.07;112.13;;;7.40;99.90;;;;;;4935451;29;20432;-77
2023/12/25 03:21:13;;;;;;;186.23;119.70;;;7.50;99.90;;;;;;4936404;29;20040;-77
2023/12/25 03:23:39;;;;;;;166.32;111.25;;;7.40;99.90;;;;;;4919328;29;20112;-77
2023/12/25 03:26:05;;;;;;;170.15;110.60;;;7.40;99.90;;;;;;4936238;29;20030;-77
2023/12/25 03:28:31;;;;;;;168.52;114.68;;;7.30;99.90;;;;;;4936120;29;20087;-77
2023/12/25 03:30:57;;;;;;;175.82;111.38;;;7.20;99.90;;;;;;4935961;29;20023;-76
2023/12/25 03:33:23;;;;;;;167.48;109.85;;;7.10;99.90;;;;;;4919114;29;20075;-75
2023/12/25 03:35:49;;;;;;;145.88;99.28;;;7.10;99.90;;;;;;4935984;29;20540;-77
2023/12/25 03:38:15;;;;;;;140.63;95.10;;;7.10;99.90;;;;;;4919047;29;20118;-77
2023/12/25 03:40:41;;;;;;;143.77;93.05;;;7.10;99.90;;;;;;4918303;29;20055;-76
2023/12/25 03:43:07;;;;;;;149.98;97.18;;;7.10;99.90;;;;;;4936424;29;20059;-77
2023/12/25 03:45:33;;;;;;;140.15;97.85;;;7.10;99.90;;;;;;4918711;29;20027;-77
2023/12/25 03:47:59;;;;;;;140.35;93.72;;;7.10;99.90;;;;;;4918960;29;20083;-74
2023/12/25 03:50:25;;;;;;;134.40;92.55;;;7.00;99.90;;;;;;4918048;29;20027;-78
2023/12/25 03:52:51;;;;;;;133.27;92.28;;;7.00;99.90;;;;;;4918433;29;20043;-78
2023/12/25 03:55:17;;;;;;;141.00;99.63;;;7.10;99.90;;;;;;4936008;29;20102;-77
2023/12/25 03:57:43;;;;;;;134.57;85.97;;;7.10;99.90;;;;;;4936084;29;20047;-77
2023/12/25 04:00:09;;;;;;;114.53;72.28;;;6.90;99.90;;;;;;4935426;29;20035;-77
2023/12/25 04:02:42;;;;;;;104.47;66.80;;;6.90;99.90;;;;;;4918511;29;20030;-75
2023/12/25 04:05:09;;;;;;;68.40;49.10;;;6.80;99.90;;;;;;4935536;29;20623;-77
2023/12/25 04:07:36;;;;;;;62.05;44.67;;;6.80;99.90;;;;;;4918491;29;20094;-77
2023/12/25 04:10:02;;;;;;;70.28;47.13;;;6.80;99.90;;;;;;4935189;29;20057;-75
2023/12/25 04:12:28;;;;;;;69.38;43.22;;;6.90;99.90;;;;;;4918097;29;20514;-74
2023/12/25 04:14:54;;;;;;;81.53;48.83;;;6.90;99.90;;;;;;4917962;29;20031;-77
2023/12/25 04:17:20;;;;;;;74.60;46.92;;;7.00;99.90;;;;;;4935550;29;20020;-78
2023/12/25 04:19:46;;;;;;;81.45;49.88;;;7.00;99.90;;;;;;4920417;29;20067;-78
2023/12/25 04:22:13;;;;;;;63.30;44.00;;;7.00;99.90;;;;;;4917882;29;20039;-74
2023/12/25 04:24:39;;;;;;;59.90;39.15;;;7.00;99.90;;;;;;4917632;29;20079;-77
2023/12/25 04:27:05;;;;;;;77.10;47.58;;;6.90;99.90;;;;;;4918370;29;20032;-77
2023/12/25 04:29:31;;;;;;;60.80;39.63;;;7.00;99.90;;;;;;4933562;29;20124;-77
2023/12/25 04:31:58;;;;;;;59.83;41.45;;;7.00;99.90;;;;;;4918322;29;20479;-77
2023/12/25 04:34:24;;;;;;;56.78;38.78;;;7.10;99.90;;;;;;4917231;29;20126;-78
2023/12/25 04:36:51;;;;;;;51.60;36.38;;;7.10;99.90;;;;;;4924970;29;20073;-78
2023/12/25 04:39:17;;;;;;;57.97;35.90;;;7.10;99.90;;;;;;4922288;29;20020;-75
2023/12/25 04:41:42;;;;;;;77.65;58.35;;;7.10;99.90;;;;;;4917820;29;20036;-76
2023/12/25 04:44:08;;;;;;;73.93;47.25;;;6.80;99.90;;;;;;4917848;29;20110;-78
2023/12/25 04:46:35;;;;;;;55.13;37.97;;;6.70;99.90;;;;;;4917854;29;20435;-76
2023/12/25 04:49:02;;;;;;;46.95;32.58;;;6.80;99.90;;;;;;4917725;29;20055;-78
2023/12/25 04:51:28;;;;;;;47.70;33.67;;;6.80;99.90;;;;;;4917834;29;20032;-78
2023/12/25 04:53:53;;;;;;;56.88;36.58;;;6.80;99.90;;;;;;4917390;29;20020;-76
2023/12/25 04:56:20;;;;;;;56.08;36.05;;;6.80;99.90;;;;;;4934865;29;20118;-75
2023/12/25 04:58:45;;;;;;;53.13;34.17;;;6.80;99.90;;;;;;4917775;29;20115;-79
2023/12/25 05:01:11;;;;;;;53.75;34.90;;;6.80;99.90;;;;;;4917616;29;20090;-77
2023/12/25 05:03:40;;;;;;;55.90;34.42;;;6.90;99.90;;;;;;4915941;29;20086;-77
2023/12/25 05:06:05;;;;;;;72.90;48.28;;;6.90;99.90;;;;;;4917911;29;20115;-78
2023/12/25 05:08:31;;;;;;;71.53;48.25;;;6.90;99.90;;;;;;4917419;29;20024;-77
2023/12/25 05:10:57;;;;;;;63.63;42.50;;;6.90;99.90;;;;;;4934764;29;20415;-77
2023/12/25 05:13:23;;;;;;;64.97;43.33;;;6.90;99.90;;;;;;4917206;29;20032;-78
2023/12/25 05:15:49;;;;;;;64.28;42.50;;;6.80;99.90;;;;;;4934917;29;20123;-75
2023/12/25 05:18:15;;;;;;;61.75;40.80;;;6.80;99.90;;;;;;4917049;29;20027;-77
2023/12/25 05:20:41;;;;;;;64.70;42.83;;;6.80;99.90;;;;;;4934806;29;20040;-77
2023/12/25 05:23:07;;;;;;;61.25;43.22;;;6.70;99.90;;;;;;4934357;29;20380;-79
2023/12/25 05:25:33;;;;;;;63.78;43.90;;;6.70;99.90;;;;;;4934528;29;20043;-76
2023/12/25 05:27:59;;;;;;;64.63;41.08;;;6.70;99.90;;;;;;4934249;29;20027;-77
2023/12/25 05:30:25;;;;;;;68.13;41.33;;;6.70;99.90;;;;;;4934148;29;20087;-74
2023/12/25 05:32:51;;;;;;;68.90;43.35;;;6.60;99.90;;;;;;4934629;29;20111;-77
2023/12/25 05:35:17;;;;;;;67.38;41.75;;;6.60;99.90;;;;;;4933959;29;20464;-76
2023/12/25 05:37:43;;;;;;;68.05;43.03;;;6.60;99.90;;;;;;4934365;29;20016;-76
2023/12/25 05:40:10;;;;;;;80.72;53.00;;;6.60;99.90;;;;;;4934293;29;20040;-77
2023/12/25 05:42:36;;;;;;;81.55;49.95;;;6.60;99.90;;;;;;4938361;29;20042;-78
2023/12/25 05:45:02;;;;;;;74.45;47.40;;;6.60;99.90;;;;;;4938204;29;20098;-77
2023/12/25 05:47:28;;;;;;;77.90;47.92;;;6.60;99.90;;;;;;4921025;29;20040;-75
2023/12/25 05:49:54;;;;;;;75.70;51.47;;;6.50;99.90;;;;;;4920544;29;20547;-76
2023/12/25 05:52:20;;;;;;;84.55;50.80;;;6.40;99.90;;;;;;4938283;29;20098;-77
2023/12/25 05:54:46;;;;;;;92.20;52.28;;;6.40;99.90;;;;;;4937854;29;20118;-78
2023/12/25 05:57:11;;;;;;;98.85;58.42;;;6.30;99.90;;;;;;4937813;29;20031;-78
2023/12/25 05:59:37;;;;;;;93.97;59.05;;;6.30;99.90;;;;;;4937804;29;20075;-76
2023/12/25 06:02:04;;;;;;;105.10;66.57;;;6.30;99.90;;;;;;4937571;29;20032;-78
2023/12/25 06:04:30;;;;;;;121.60;76.13;;;6.20;99.90;;;;;;4938017;29;20066;-78
2023/12/25 06:06:56;;;;;;;108.03;64.80;;;6.30;99.90;;;;;;4937415;29;20084;-77
2023/12/25 06:09:23;;;;;;;102.13;66.32;;;6.30;99.90;;;;;;4937511;29;20039;-75
2023/12/25 06:11:49;;;;;;;104.68;60.25;;;6.30;99.90;;;;;;4920234;29;20036;-77
2023/12/25 06:14:14;;;;;;;98.32;59.72;;;6.30;99.90;;;;;;4920705;29;20373;-78
2023/12/25 06:16:40;;;;;;;134.70;86.40;;;6.20;99.90;;;;;;4937657;29;20040;-78
2023/12/25 06:19:06;;;;;;;121.28;79.85;;;6.20;99.90;;;;;;4937394;29;20020;-78
2023/12/25 06:21:32;;;;;;;108.47;70.72;;;6.30;99.90;;;;;;4937336;29;20534;-77
2023/12/25 06:23:58;;;;;;;108.43;72.00;;;6.30;99.90;;;;;;4937480;29;20383;-77
2023/12/25 06:26:24;;;;;;;103.40;67.95;;;6.40;99.90;;;;;;4937395;29;20119;-77
2023/12/25 06:28:49;;;;;;;101.75;69.97;;;6.40;99.90;;;;;;4936787;29;20031;-78
2023/12/25 06:31:15;;;;;;;104.22;65.10;;;6.50;99.90;;;;;;4937452;29;20432;-78
2023/12/25 06:33:42;;;;;;;107.68;71.30;;;6.60;99.90;;;;;;4937472;29;20082;-75
2023/12/25 06:36:08;;;;;;;103.15;64.70;;;6.60;99.90;;;;;;4937364;29;20110;-76
2023/12/25 06:38:34;;;;;;;113.22;74.40;;;6.60;99.90;;;;;;4937191;29;20028;-76
2023/12/25 06:41:01;;;;;;;125.63;79.78;;;6.50;99.90;;;;;;4936634;29;20082;-77
2023/12/25 06:43:27;;;;;;;114.10;74.22;;;6.50;99.90;;;;;;4936934;29;20027;-77
2023/12/25 06:45:52;;;;;;;130.43;79.18;;;6.60;99.90;;;;;;4919749;29;20031;-76
2023/12/25 06:48:18;;;;;;;113.32;76.32;;;6.80;99.90;;;;;;4937052;29;20030;-76
2023/12/25 06:50:44;;;;;;;119.68;78.07;;;6.90;99.90;;;;;;4936324;29;20484;-77
2023/12/25 06:53:10;;;;;;;119.22;77.45;;;6.90;99.90;;;;;;4935926;29;20028;-78
2023/12/25 06:55:36;;;;;;;131.02;77.85;;;7.00;99.90;;;;;;4919482;29;20040;-78
2023/12/25 06:58:02;;;;;;;145.73;89.05;;;7.10;99.90;;;;;;4919925;29;20031;-77
2023/12/25 07:00:29;;;;;;;170.77;110.88;;;7.10;99.90;;;;;;4919233;29;20086;-78
2023/12/25 07:02:55;;;;;;;151.55;98.82;;;7.30;99.90;;;;;;4936927;29;20472;-77
2023/12/25 07:05:22;;;;;;;133.98;93.72;;;7.40;99.90;;;;;;4919496;29;20026;-77
2023/12/25 07:07:48;;;;;;;149.40;95.47;;;7.60;99.90;;;;;;4919661;29;20122;-76
2023/12/25 07:10:14;;;;;;;148.98;94.18;;;7.80;99.90;;;;;;4936331;29;20171;-78
2023/12/25 07:12:40;;;;;;;142.27;98.93;;;8.00;99.90;;;;;;4936290;29;20047;-77
2023/12/25 07:15:07;;;;;;;130.73;90.63;;;8.20;99.90;;;;;;4936435;29;20030;-77
2023/12/25 07:17:32;;;;;;;160.80;100.03;;;8.30;99.90;;;;;;4936419;29;20035;-77
2023/12/25 07:19:58;;;;;;;138.52;92.80;;;8.30;99.90;;;;;;4936429;29;20086;-78
2023/12/25 07:22:24;;;;;;;162.57;94.70;;;8.40;99.90;;;;;;4936042;29;20110;-77
2023/12/25 07:24:50;;;;;;;151.15;101.18;;;8.60;99.90;;;;;;4919378;29;20035;-77
2023/12/25 07:27:16;;;;;;;163.18;109.68;;;8.60;99.90;;;;;;4919003;29;20047;-78
2023/12/25 07:29:42;;;;;;;172.18;109.72;;;8.70;99.90;;;;;;4907303;29;20024;-78
2023/12/25 07:32:09;;;;;;;201.02;134.57;;;8.80;99.90;;;;;;4919090;29;20048;-76
2023/12/25 07:34:35;;;;;;;242.27;158.45;;;8.90;99.90;;;;;;4919146;29;20027;-77
2023/12/25 07:37:02;;;;;;;268.25;176.10;;;9.00;99.90;;;;;;4935839;29;20028;-78
2023/12/25 07:39:27;;;;;;;189.65;123.28;;;9.20;99.90;;;;;;4918694;29;20083;-78
2023/12/25 07:41:55;;;;;;;121.95;82.80;;;9.30;99.90;;;;;;4918739;29;20488;-77
2023/12/25 07:44:23;;;;;;;115.20;80.72;;;9.30;99.90;;;;;;4919398;29;20031;-78
2023/12/25 07:46:49;;;;;;;95.32;65.55;;;9.40;99.90;;;;;;4935894;29;20023;-77
2023/12/25 07:49:17;;;;;;;78.25;52.95;;;9.50;99.90;;;;;;4935716;29;20453;-78
2023/12/25 07:51:43;;;;;;;76.90;47.47;;;9.60;99.90;;;;;;4935762;29;20028;-77
2023/12/25 07:54:09;;;;;;;80.60;51.25;;;9.60;99.90;;;;;;4918637;29;20038;-79
2023/12/25 07:56:35;;;;;;;80.30;53.13;;;9.70;99.90;;;;;;4935795;29;20043;-78
2023/12/25 07:59:00;;;;;;;87.47;57.92;;;9.80;99.90;;;;;;4935667;29;20468;-78
2023/12/25 08:01:26;;;;;;;91.80;60.28;;;9.90;99.90;;;;;;4918264;29;20039;-77
2023/12/25 08:03:52;;;;;;;81.47;53.17;;;10.00;99.90;;;;;;4935377;29;20031;-78
2023/12/25 08:06:18;;;;;;;80.75;49.05;;;10.10;99.90;;;;;;4918633;29;20522;-77
2023/12/25 08:08:45;;;;;;;62.20;39.42;;;10.20;99.90;;;;;;4935782;29;20167;-77
2023/12/25 08:11:14;;;;;;;55.80;35.78;;;10.20;99.90;;;;;;4934177;29;20051;-77
2023/12/25 08:13:40;;;;;;;59.88;35.22;;;10.30;99.90;;;;;;4935379;29;20114;-76
2023/12/25 08:16:06;;;;;;;57.03;35.08;;;10.50;99.90;;;;;;4934901;29;20115;-79
2023/12/25 08:18:33;;;;;;;47.50;29.88;;;10.60;99.90;;;;;;4935711;29;20030;-78
2023/12/25 08:20:59;;;;;;;49.13;31.33;;;10.80;99.90;;;;;;4934993;29;20039;-78
2023/12/25 08:23:25;;;;;;;49.90;29.60;;;10.80;99.90;;;;;;4935145;29;20034;-78
2023/12/25 08:25:51;;;;;;;49.35;30.00;;;10.90;99.90;;;;;;4934690;29;20063;-77
2023/12/25 08:28:17;;;;;;;41.40;29.45;;;11.20;99.90;;;;;;4935643;29;20407;-77
2023/12/25 08:30:43;;;;;;;43.20;26.92;;;11.40;99.90;;;;;;4918020;29;20122;-76
2023/12/25 08:33:09;;;;;;;41.63;26.98;;;11.50;99.90;;;;;;4934531;29;20091;-76
2023/12/25 08:35:35;;;;;;;40.53;26.10;;;11.70;99.90;;;;;;4934478;29;20024;-75
2023/12/25 08:38:01;;;;;;;43.78;27.90;;;11.70;99.90;;;;;;4934791;29;20059;-77
2023/12/25 08:40:27;;;;;;;49.97;29.50;;;11.80;99.90;;;;;;4934865;29;20058;-77
2023/12/25 08:42:54;;;;;;;53.85;29.30;;;11.90;99.90;;;;;;4934913;29;20079;-79
2023/12/25 08:45:19;;;;;;;49.35;27.15;;;12.00;99.90;;;;;;4934445;29;20030;-77
2023/12/25 08:47:48;;;;;;;41.83;26.80;;;12.20;99.90;;;;;;4934557;29;20024;-77
2023/12/25 08:50:14;;;;;;;49.85;29.77;;;12.40;99.90;;;;;;4917710;29;20039;-78
2023/12/25 08:52:40;;;;;;;53.20;34.80;;;12.50;99.90;;;;;;4934809;29;20107;-75
2023/12/25 08:55:06;;;;;;;53.45;33.03;;;12.60;99.90;;;;;;4934583;29;20130;-76
2023/12/25 08:57:35;;;;;;;48.83;28.60;;;12.70;99.90;;;;;;4934666;29;20024;-77
2023/12/25 09:00:06;;;;;;;43.92;27.73;;;12.90;99.90;;;;;;4934590;29;20031;-78
2023/12/25 09:02:32;;;;;;;38.70;23.92;;;12.90;99.90;;;;;;4935032;29;20027;-78
2023/12/25 09:04:58;;;;;;;40.60;25.63;;;13.20;99.90;;;;;;4937353;28;20046;-77
2023/12/25 09:07:24;;;;;;;42.72;24.92;;;13.20;99.40;;;;;;4927144;29;20111;-76
2023/12/25 09:09:50;;;;;;;37.63;24.75;;;13.40;99.90;;;;;;4917215;29;20043;-76
2023/12/25 09:12:16;;;;;;;34.78;21.85;;;13.60;99.90;;;;;;4915923;29;20028;-74
2023/12/25 09:14:44;;;;;;;33.60;20.90;;;13.70;99.40;;;;;;4915213;29;20509;-75
2023/12/25 09:17:10;;;;;;;41.25;25.38;;;13.80;98.40;;;;;;4916289;29;20024;-76
2023/12/25 09:19:36;;;;;;;37.72;23.45;;;14.00;98.30;;;;;;4915471;29;20461;-75
2023/12/25 09:22:03;;;;;;;37.65;21.77;;;14.00;98.10;;;;;;4915467;29;20035;-74
2023/12/25 09:24:29;;;;;;;38.45;20.90;;;14.10;96.60;;;;;;4914228;29;20400;-77
2023/12/25 09:26:55;;;;;;;28.77;16.35;;;14.10;95.40;;;;;;4913380;29;20365;-77
2023/12/25 09:29:21;;;;;;;25.02;14.80;;;14.30;95.20;;;;;;4915523;29;20035;-76
2023/12/25 09:31:47;;;;;;;25.83;13.05;;;14.30;95.00;;;;;;4915547;29;20028;-77
2023/12/25 09:34:13;;;;;;;25.13;12.13;;;14.40;94.90;;;;;;4915322;29;20036;-79
2023/12/25 09:36:38;;;;;;;23.33;13.07;;;14.50;94.00;;;;;;4914331;29;20020;-77
2023/12/25 09:39:04;;;;;;;19.35;10.20;;;14.60;92.60;;;;;;4915224;29;20044;-76
2023/12/25 09:41:32;;;;;;;20.58;10.65;;;14.70;98.90;;;;;;4915014;29;20127;-77
2023/12/25 09:44:02;;;;;;;25.45;14.93;;;14.80;97.20;;;;;;4915179;29;20476;-77
2023/12/25 09:46:31;;;;;;;35.35;21.70;;;14.90;95.40;;;;;;4915639;29;20036;-77
2023/12/25 09:48:57;;;;;;;36.40;21.27;;;15.10;99.20;;;;;;4915257;29;20433;-76
2023/12/25 09:51:25;;;;;;;29.83;17.20;;;15.00;91.90;;;;;;4914579;29;20025;-75
2023/12/25 09:53:51;;;;;;;25.58;16.23;;;15.20;95.50;;;;;;4921275;29;20448;-75
2023/12/25 09:56:21;;;;;;;35.80;16.98;;;15.20;92.80;;;;;;4914121;29;20047;-78
2023/12/25 09:58:48;;;;;;;30.85;17.17;;;15.20;97.10;;;;;;4919364;29;20492;-78
2023/12/25 10:01:17;;;;;;;32.22;17.50;;;15.30;92.50;;;;;;4915450;29;20571;-75
2023/12/25 10:03:47;;;;;;;34.42;16.67;;;15.40;92.00;;;;;;4915273;29;20070;-74
2023/12/25 10:06:13;;;;;;;31.10;14.95;;;15.40;91.80;;;;;;4915022;29;20034;-76
2023/12/25 10:08:40;;;;;;;24.85;14.57;;;15.50;90.50;;;;;;4915226;29;20032;-76
2023/12/25 10:11:13;;;;;;;25.40;13.57;;;15.60;89.60;;;;;;4938653;28;20091;-75
2023/12/25 10:13:39;;;;;;;21.55;11.68;;;15.60;90.10;;;;;;4934054;29;20050;-77
2023/12/25 10:16:06;;;;;;;24.15;12.32;;;15.60;90.20;;;;;;4933878;29;20035;-78
2023/12/25 10:18:33;;;;;;;21.08;12.15;;;15.70;88.90;;;;;;4934109;29;20030;-77
2023/12/25 10:21:00;;;;;;;23.55;14.98;;;15.70;87.70;;;;;;4916715;29;20040;-76
2023/12/25 10:23:34;;;;;;;26.00;15.90;;;15.80;91.30;;;;;;4933636;29;20393;-77
2023/12/25 10:26:03;;;;;;;27.10;16.73;;;15.80;88.70;;;;;;4917229;29;20126;-75
2023/12/25 10:28:30;;;;;;;39.05;22.83;;;15.90;87.90;;;;;;4935996;29;20108;-78
2023/12/25 10:31:07;;;;;;;26.67;15.02;;;15.90;89.70;;;;;;4937354;29;20060;-77
2023/12/25 10:33:35;;;;;;;24.70;14.88;;;15.90;88.30;;;;;;4911682;29;20028;-77
2023/12/25 10:36:07;;;;;;;23.65;14.52;;;16.00;88.40;;;;;;4936792;29;20436;-78
2023/12/25 10:38:34;;;;;;;19.23;11.07;;;15.90;90.70;;;;;;4937371;29;20027;-78
2023/12/25 10:41:26;;;;;;;19.08;10.75;;;16.00;87.10;;;;;;4936471;29;20151;-78
2023/12/25 10:43:56;;;;;;;25.83;11.10;;;16.10;85.50;;;;;;4929427;29;20484;-78
2023/12/25 10:46:27;;;;;;;26.65;13.40;;;16.20;89.40;;;;;;4935972;29;20408;-77
2023/12/25 10:48:55;;;;;;;26.25;12.05;;;16.10;89.20;;;;;;4919997;29;20448;-77
2023/12/25 10:51:34;;;;;;;24.88;12.52;;;16.20;84.40;;;;;;4937186;29;20122;-75
2023/12/25 10:54:04;;;;;;;24.52;12.45;;;16.20;83.60;;;;;;4940832;29;20031;-77
2023/12/25 10:56:35;;;;;;;20.73;11.30;;;16.20;84.20;;;;;;4936828;29;20078;-78
2023/12/25 10:59:27;;;;;;;23.08;12.43;;;16.30;84.20;;;;;;4937020;29;20511;-78
2023/12/25 11:01:54;;;;;;;24.30;13.32;;;16.40;85.20;;;;;;4877155;29;20052;-77
2023/12/25 11:04:21;;;;;;;28.42;14.52;;;16.50;87.10;;;;;;4862623;29;20041;-75
2023/12/25 11:06:49;;;;;;;23.08;11.88;;;16.50;83.50;;;;;;4878118;29;20040;-77
2023/12/25 11:09:20;;;;;;;25.23;13.38;;;16.50;83.40;;;;;;4877971;29;20477;-78
2023/12/25 11:11:46;;;;;;;30.67;17.10;;;16.50;85.50;;;;;;4877740;29;20108;-77
2023/12/25 11:14:12;;;;;;;34.13;19.17;;;16.50;85.80;;;;;;4877855;29;20045;-76
2023/12/25 11:16:38;;;;;;;39.47;22.52;;;16.50;85.00;;;;;;4877731;29;20128;-79
2023/12/25 11:19:05;;;;;;;46.85;27.00;;;16.50;85.60;;;;;;4877723;29;20045;-74
2023/12/25 11:21:33;;;;;;;45.38;29.65;;;16.50;86.40;;;;;;4877596;29;20041;-74
2023/12/25 11:24:05;;;;;;;50.50;29.67;;;16.50;88.90;;;;;;4877619;29;20145;-76
2023/12/25 11:26:31;;;;;;;54.47;34.80;;;16.50;86.90;;;;;;4861733;29;20058;-76
2023/12/25 11:29:02;;;;;;;51.00;34.50;;;16.50;86.50;;;;;;4865709;29;20085;-77
2023/12/25 11:31:39;;;;;;;57.60;38.85;;;16.50;90.30;;;;;;4860429;29;20066;-76
2023/12/25 11:34:22;;;;;;;57.85;36.35;;;16.50;88.90;;;;;;4862060;29;20026;-78
2023/12/25 11:36:56;;;;;;;57.10;38.90;;;16.50;87.40;;;;;;4864341;29;20064;-76
2023/12/25 11:39:29;;;;;;;55.28;38.72;;;16.50;89.00;;;;;;4907753;29;20049;-75
2023/12/25 11:41:56;;;;;;;60.03;36.47;;;16.50;89.70;;;;;;4917778;29;20037;-76
2023/12/25 11:44:33;;;;;;;47.42;34.05;;;16.50;86.90;;;;;;4935027;29;20031;-76
2023/12/25 11:47:00;;;;;;;52.33;36.10;;;16.60;92.40;;;;;;4922802;29;20535;-76
2023/12/25 11:49:32;;;;;;;49.50;33.60;;;16.60;92.10;;;;;;4935821;29;20063;-74
2023/12/25 11:51:58;;;;;;;48.50;32.00;;;16.50;89.00;;;;;;4935598;29;20118;-76
2023/12/25 11:54:36;;;;;;;44.88;30.70;;;16.60;91.20;;;;;;4931258;29;20118;-77
2023/12/25 11:57:17;;;;;;;48.72;30.52;;;16.60;90.50;;;;;;4935490;29;20028;-76
2023/12/25 11:59:44;;;;;;;49.22;29.13;;;16.60;87.60;;;;;;4923876;29;20036;-78
2023/12/25 12:02:11;;;;;;;46.95;29.42;;;16.60;88.20;;;;;;4918559;29;20027;-80
2023/12/25 12:04:38;;;;;;;43.80;27.73;;;16.60;91.70;;;;;;4935515;29;20058;-79
2023/12/25 12:07:04;;;;;;;39.17;26.88;;;16.60;94.10;;;;;;4935669;29;20150;-75
2023/12/25 12:09:30;;;;;;;39.92;26.08;;;16.60;92.90;;;;;;4935338;28;20109;-78
2023/12/25 12:11:56;;;;;;;38.03;25.83;;;16.60;87.10;;;;;;4935462;29;20032;-78
2023/12/25 12:14:21;;;;;;;38.95;26.52;;;16.60;92.10;;;;;;4935534;29;20395;-75
2023/12/25 12:16:48;;;;;;;35.33;22.80;;;16.60;90.60;;;;;;4935366;29;20036;-77
2023/12/25 12:19:14;;;;;;;33.25;22.45;;;16.60;91.10;;;;;;4935567;29;20460;-78
2023/12/25 12:21:41;;;;;;;36.22;23.33;;;16.60;91.60;;;;;;4935062;29;20094;-78
2023/12/25 12:24:06;;;;;;;33.65;20.75;;;16.70;86.40;;;;;;4918467;29;20036;-77